createdAt,value
2018-01-24T00:02:09.440Z," 9.48"
2018-01-24T00:07:10.372Z," 9.46"
2018-01-24T00:12:05.118Z," 9.46"
2018-01-24T00:17:05.010Z," 9.47"
2018-01-24T00:22:00.152Z," 9.56"
2018-01-24T00:26:57.053Z," 9.47"
2018-01-24T00:31:57.689Z," 9.54"
2018-01-24T00:36:52.367Z," 9.54"
2018-01-24T00:41:48.883Z," 9.51"
2018-01-24T00:46:45.381Z," 9.58"
2018-01-24T00:51:44.906Z," 9.59"
2018-01-24T00:56:40.153Z," 9.64"
2018-01-24T01:01:35.966Z," 9.69"
2018-01-24T01:06:31.626Z," 9.80"
2018-01-24T01:11:31.357Z," 9.73"
2018-01-24T01:16:26.491Z," 9.79"
2018-01-24T01:21:26.876Z," 9.79"
2018-01-24T01:26:25.713Z," 9.76"
2018-01-24T01:31:21.813Z," 9.84"
2018-01-24T01:36:17.397Z," 9.95"
2018-01-24T01:41:14.174Z," 9.84"
2018-01-24T01:46:15.048Z," 9.92"
2018-01-24T01:51:13.915Z,10.07
2018-01-24T01:56:10.236Z,10.13
2018-01-24T02:01:06.475Z,10.25
2018-01-24T02:06:02.115Z,10.33
2018-01-24T02:10:57.722Z,10.46
2018-01-24T02:15:53.636Z,10.53
2018-01-24T02:20:49.441Z,10.67
2018-01-24T02:25:50.355Z,10.67
2018-01-24T02:30:49.174Z,10.75
2018-01-24T02:35:47.777Z,10.76
2018-01-24T02:40:46.788Z,10.78
2018-01-24T02:45:45.777Z,10.74
2018-01-24T02:50:40.377Z,10.87
2018-01-24T02:55:40.130Z,10.97
2018-01-24T03:00:37.767Z,11.00
2018-01-24T03:05:38.049Z,10.97
2018-01-24T03:10:33.736Z,11.07
2018-01-24T03:15:29.197Z,10.94
2018-01-24T03:20:29.239Z,11.07
2018-01-24T03:25:25.058Z,11.05
2018-01-24T03:30:20.503Z,11.18
2018-01-24T03:35:16.447Z,11.12
2018-01-24T03:40:17.388Z,11.05
2018-01-24T03:45:15.859Z,11.17
2018-01-24T03:50:15.126Z,11.33
2018-01-24T03:55:10.780Z,11.17
2018-01-24T04:00:06.700Z,11.27
2018-01-24T04:05:06.601Z,11.22
2018-01-24T04:10:05.622Z,11.15
2018-01-24T04:15:01.700Z,11.17
2018-01-24T04:19:57.211Z,11.19
2018-01-24T04:24:53.951Z,11.12
2018-01-24T04:29:53.390Z,11.15
2018-01-24T04:34:48.382Z,11.23
2018-01-24T04:39:44.221Z,11.22
2018-01-24T04:44:40.821Z,11.19
2018-01-24T04:49:41.783Z,11.11
2018-01-24T04:54:42.044Z,11.12
2018-01-24T04:59:36.883Z,10.96
2018-01-24T05:04:37.624Z,10.96
2018-01-24T05:09:38.507Z,10.99
2018-01-24T05:14:33.088Z,11.02
2018-01-24T05:19:29.197Z,10.94
2018-01-24T05:24:29.005Z,10.90
2018-01-24T05:29:24.565Z,10.86
2018-01-24T05:34:19.980Z,10.90
2018-01-24T05:39:16.047Z,10.89
2018-01-24T05:44:15.825Z,10.92
2018-01-24T05:49:11.155Z,10.93
2018-01-24T05:54:06.906Z,10.94
2018-01-24T05:59:02.708Z,11.04
2018-01-24T06:03:58.601Z,10.99
2018-01-24T06:08:58.352Z,11.04
2018-01-24T06:13:57.420Z,11.12
2018-01-24T06:18:52.189Z,11.32
2018-01-24T06:23:49.172Z,11.29
2018-01-24T06:28:48.668Z,11.37
2018-01-24T06:33:44.669Z,11.43
2018-01-24T06:38:40.875Z,11.48
2018-01-24T06:43:41.762Z,11.41
2018-01-24T06:48:41.349Z,11.45
2018-01-24T06:53:39.777Z,11.48
2018-01-24T06:58:39.942Z,11.48
2018-01-24T07:03:38.486Z,11.55
2018-01-24T07:08:33.542Z,11.57
2018-01-24T07:13:33.218Z,11.69
2018-01-24T07:18:32.364Z,11.59
2018-01-24T07:23:28.415Z,11.72
2018-01-24T07:28:25.639Z,11.75
2018-01-24T07:33:21.347Z,11.84
2018-01-24T07:38:22.087Z,11.87
2018-01-24T07:43:20.850Z,11.84
2018-01-24T07:48:19.925Z,11.99
2018-01-24T07:53:14.535Z,11.94
2018-01-24T07:58:10.551Z,12.12
2018-01-24T08:03:11.416Z,12.06
2018-01-24T08:08:10.839Z,12.07
2018-01-24T08:13:06.113Z,12.12
2018-01-24T08:18:05.881Z,12.21
2018-01-24T08:23:02.010Z,12.13
2018-01-24T08:27:58.525Z,12.18
2018-01-24T08:32:54.186Z,12.17
2018-01-24T08:37:49.987Z,12.24
2018-01-24T08:42:45.919Z,12.22
2018-01-24T08:47:41.801Z,12.27
2018-01-24T08:52:37.559Z,12.35
2018-01-24T08:57:34.158Z,12.36
2018-01-24T09:02:30.261Z,12.45
2018-01-24T09:07:26.305Z,12.54
2018-01-24T09:12:23.207Z,12.58
2018-01-24T09:17:19.180Z,12.53
2018-01-24T09:22:18.975Z,12.50
2018-01-24T09:27:17.782Z,12.60
2018-01-24T09:32:12.697Z,12.57
2018-01-24T09:37:09.247Z,12.82
2018-01-24T09:42:05.291Z,12.79
2018-01-24T09:47:01.223Z,12.85
2018-01-24T09:51:57.403Z,12.76
2018-01-24T09:56:53.364Z,12.94
2018-01-24T10:01:53.074Z,12.86
2018-01-24T10:06:49.383Z,12.94
2018-01-24T10:11:50.128Z,13.01
2018-01-24T10:16:45.950Z,13.04
2018-01-24T10:21:42.822Z,13.23
2018-01-24T10:26:42.358Z,13.19
2018-01-24T10:31:37.498Z,13.28
2018-01-24T10:36:37.326Z,13.19
2018-01-24T10:41:33.059Z,13.35
2018-01-24T10:46:30.429Z,13.41
2018-01-24T10:51:25.738Z,13.37
2018-01-24T10:56:27.195Z,13.53
2018-01-24T11:01:27.276Z,13.79
2018-01-24T11:06:23.295Z,13.90
2018-01-24T11:16:19.107Z,13.97
2018-01-24T11:21:19.251Z,13.97
2018-01-24T11:26:18.535Z,14.14
2018-01-24T11:31:14.496Z,14.28
2018-01-24T11:36:13.974Z,14.22
2018-01-24T11:41:09.020Z,14.11
2018-01-24T11:46:05.023Z,14.25
2018-01-24T11:51:01.837Z,14.29
2018-01-24T11:56:01.322Z,14.28
2018-01-24T12:00:55.927Z,14.30
2018-01-24T12:05:52.549Z,14.37
2018-01-24T12:10:48.694Z,14.26
2018-01-24T12:15:44.934Z,14.25
2018-01-24T12:20:44.518Z,14.29
2018-01-24T12:25:39.430Z,14.26
2018-01-24T12:30:39.560Z,14.18
2018-01-24T12:35:34.517Z,14.17
2018-01-24T12:40:30.361Z,14.17
2018-01-24T12:45:26.242Z,14.18
2018-01-24T12:50:22.951Z,14.12
2018-01-24T12:55:18.475Z,14.10
2018-01-24T13:00:15.321Z,14.11
2018-01-24T13:05:11.171Z,14.12
2018-01-24T13:10:06.767Z,14.18
2018-01-24T13:15:03.143Z,14.23
2018-01-24T13:19:59.050Z,14.17
2018-01-24T13:24:54.551Z,14.04
2018-01-24T13:29:50.712Z,14.10
2018-01-24T13:34:47.826Z,13.99
2018-01-24T13:39:44.290Z,14.07
2018-01-24T13:44:44.026Z,14.04
2018-01-24T13:49:38.921Z,13.99
2018-01-24T13:54:34.732Z,14.00
2018-01-24T13:59:30.795Z,14.04
2018-01-24T14:04:27.645Z,14.05
2018-01-24T14:09:27.355Z,13.99
2018-01-24T14:14:21.919Z,14.08
2018-01-24T14:19:17.986Z,13.97
2018-01-24T14:24:14.760Z,14.00
2018-01-24T14:29:10.262Z,14.00
2018-01-24T14:34:06.111Z,13.99
2018-01-24T14:39:05.803Z,14.07
2018-01-24T14:44:02.249Z,14.03
2018-01-24T14:49:01.785Z,14.07
2018-01-24T14:54:00.349Z,14.00
2018-01-24T14:58:55.035Z,13.99
2018-01-24T15:03:50.653Z,14.00
2018-01-24T15:08:47.448Z,14.00
2018-01-24T15:13:46.952Z,13.95
2018-01-24T15:18:42.071Z,13.86
2018-01-24T15:23:41.697Z,13.89
2018-01-24T15:28:40.624Z,13.85
2018-01-24T15:33:40.562Z,13.86
2018-01-24T15:38:35.326Z,13.92
2018-01-24T15:43:36.039Z,13.89
2018-01-24T15:48:35.126Z,13.81
2018-01-24T15:53:31.588Z,13.74
2018-01-24T15:58:33.118Z,13.68
2018-01-24T16:03:27.681Z,13.81
2018-01-24T16:08:27.256Z,13.72
2018-01-24T16:13:22.230Z,13.75
2018-01-24T16:18:23.422Z,13.83
2018-01-24T16:23:19.283Z,13.81
2018-01-24T16:28:15.808Z,13.67
2018-01-24T16:33:16.237Z,13.67
2018-01-24T16:38:12.214Z,13.68
2018-01-24T16:43:07.721Z,13.81
2018-01-24T16:48:03.763Z,13.79
2018-01-24T16:52:59.569Z,13.77
2018-01-24T16:58:00.065Z,13.77
2018-01-24T17:02:59.033Z,13.68
2018-01-24T17:07:57.749Z,13.67
2018-01-24T17:12:52.640Z,13.68
2018-01-24T17:17:49.455Z,13.67
2018-01-24T17:22:49.455Z,13.53
2018-01-24T17:27:48.518Z,13.57
2018-01-24T17:32:49.037Z,13.50
2018-01-24T17:37:43.748Z,13.52
2018-01-24T17:42:41.692Z,13.57
2018-01-24T17:47:38.229Z,13.56
2018-01-24T17:52:33.819Z,13.53
2018-01-24T17:57:30.879Z,13.49
2018-01-24T18:02:30.789Z,13.52
2018-01-24T18:07:25.726Z,13.59
2018-01-24T18:12:26.908Z,13.52
2018-01-24T18:17:21.724Z,13.44
2018-01-24T18:22:21.767Z,13.56
2018-01-24T18:27:21.620Z,13.65
2018-01-24T18:32:21.209Z,13.52
2018-01-24T18:37:19.912Z,13.54
2018-01-24T18:42:14.916Z,13.53
2018-01-24T18:47:11.929Z,13.56
2018-01-24T18:52:08.367Z,13.60
2018-01-24T18:57:07.974Z,13.59
2018-01-24T19:02:03.029Z,13.46
2018-01-24T19:06:58.826Z,13.46
2018-01-24T19:11:54.612Z,13.38
2018-01-24T19:16:50.307Z,13.31
2018-01-24T19:21:50.784Z,13.30
2018-01-24T19:26:51.472Z,13.28
2018-01-24T19:31:49.946Z,13.25
2018-01-24T19:36:45.017Z,13.35
2018-01-24T19:41:40.703Z,13.25
2018-01-24T19:46:37.677Z,13.19
2018-01-24T19:51:37.202Z,13.18
2018-01-24T19:56:37.000Z,13.15
2018-01-24T20:01:33.009Z,13.15
2018-01-24T20:06:28.357Z,13.18
2018-01-24T20:11:25.389Z,13.15
2018-01-24T20:16:25.484Z,13.08
2018-01-24T20:21:23.841Z,13.05
2018-01-24T20:26:19.040Z,13.18
2018-01-24T20:31:15.713Z,13.19
2018-01-24T20:36:15.796Z,13.23
2018-01-24T20:41:10.902Z,13.18
2018-01-24T20:46:07.666Z,13.09
2018-01-24T20:51:04.537Z,13.18
2018-01-24T21:01:03.365Z,13.23
2018-01-24T21:06:03.267Z,13.15
2018-01-24T21:10:58.853Z,13.16
2018-01-24T21:15:59.072Z,13.08
2018-01-24T21:20:57.800Z,13.04
2018-01-24T21:25:54.719Z,13.04
2018-01-24T21:30:49.715Z,13.08
2018-01-24T21:35:45.654Z,12.98
2018-01-24T21:40:42.391Z,13.05
2018-01-24T21:45:42.707Z,13.00
2018-01-24T21:50:41.225Z,12.94
2018-01-24T21:55:37.493Z,13.00
2018-01-24T22:00:34.909Z,13.03
2018-01-24T22:05:30.477Z,13.03
2018-01-24T22:10:31.321Z,13.01
2018-01-24T22:15:26.205Z,12.95
2018-01-24T22:20:23.141Z,12.91
2018-01-24T22:25:18.304Z,12.91
2018-01-24T22:30:15.254Z,12.86
2018-01-24T22:35:14.805Z,12.79
2018-01-24T22:40:10.679Z,12.87
2018-01-24T22:45:07.139Z,12.79
2018-01-24T22:50:08.359Z,12.90
2018-01-24T22:55:03.202Z,12.85
2018-01-24T22:59:59.074Z,12.85
2018-01-24T23:04:55.410Z,12.78
2018-01-24T23:09:51.453Z,12.86
2018-01-24T23:14:51.566Z,12.76
2018-01-24T23:19:50.834Z,12.75
2018-01-24T23:24:50.526Z,12.86
2018-01-24T23:29:45.097Z,12.82
2018-01-24T23:34:44.767Z,12.78
2018-01-24T23:39:40.102Z,12.80
2018-01-24T23:44:40.011Z,12.73
2018-01-24T23:49:36.061Z,12.73
2018-01-24T23:54:32.411Z,12.73
2018-01-24T23:59:28.441Z,12.75
